sensor_id;sensor_type;location;lat;lon;timestamp;pressure;altitude;pressure_sealevel;temperature;humidity
76205;BME280;64986;55.672;37.628;2023-07-29T00:01:20;98533.94;;;16.17;nan
76205;BME280;64986;55.672;37.628;2023-07-29T00:03:45;98535.75;;;16.17;nan
76205;BME280;64986;55.672;37.628;2023-07-29T00:06:11;98529.41;;;16.23;nan
76205;BME280;64986;55.672;37.628;2023-07-29T00:08:36;98532.59;;;16.30;nan
76205;BME280;64986;55.672;37.628;2023-07-29T00:11:02;98536.59;;;16.32;nan
76205;BME280;64986;55.672;37.628;2023-07-29T00:13:28;98536.84;;;16.41;nan
76205;BME280;64986;55.672;37.628;2023-07-29T00:15:54;98548.28;;;16.42;nan
76205;BME280;64986;55.672;37.628;2023-07-29T00:18:21;98544.53;;;16.37;nan
76205;BME280;64986;55.672;37.628;2023-07-29T00:20:47;98552.53;;;16.48;nan
76205;BME280;64986;55.672;37.628;2023-07-29T00:23:13;98545.59;;;16.47;nan
76205;BME280;64986;55.672;37.628;2023-07-29T00:25:38;98532.84;;;16.38;nan
76205;BME280;64986;55.672;37.628;2023-07-29T00:28:04;98544.53;;;16.53;nan
76205;BME280;64986;55.672;37.628;2023-07-29T00:30:29;98543.47;;;16.59;nan
76205;BME280;64986;55.672;37.628;2023-07-29T00:32:55;98545.59;;;16.52;nan
76205;BME280;64986;55.672;37.628;2023-07-29T00:35:20;98543.47;;;16.44;nan
76205;BME280;64986;55.672;37.628;2023-07-29T00:37:46;98538.19;;;16.49;nan
76205;BME280;64986;55.672;37.628;2023-07-29T00:40:30;98538.97;;;16.59;nan
76205;BME280;64986;55.672;37.628;2023-07-29T00:43:00;98537.34;;;16.69;nan
76205;BME280;64986;55.672;37.628;2023-07-29T00:45:26;98528.31;;;16.54;nan
76205;BME280;64986;55.672;37.628;2023-07-29T00:47:54;98528.84;;;16.67;nan
76205;BME280;64986;55.672;37.628;2023-07-29T00:50:20;98514.25;;;16.64;nan
76205;BME280;64986;55.672;37.628;2023-07-29T00:52:45;98518.50;;;16.65;nan
76205;BME280;64986;55.672;37.628;2023-07-29T00:55:11;98516.09;;;16.53;nan
76205;BME280;64986;55.672;37.628;2023-07-29T00:57:37;98525.94;;;16.63;nan
76205;BME280;64986;55.672;37.628;2023-07-29T01:00:03;98533.38;;;16.61;nan
76205;BME280;64986;55.672;37.628;2023-07-29T01:02:30;98523.00;;;16.54;nan
76205;BME280;64986;55.672;37.628;2023-07-29T01:04:58;98518.78;;;16.63;nan
76205;BME280;64986;55.672;37.628;2023-07-29T01:13:05;98500.97;;;16.79;nan
76205;BME280;64986;55.672;37.628;2023-07-29T01:15:38;98515.56;;;16.87;nan
76205;BME280;64986;55.672;37.628;2023-07-29T01:18:12;98509.75;;;16.80;nan
76205;BME280;64986;55.672;37.628;2023-07-29T01:20:40;98510.00;;;16.63;nan
76205;BME280;64986;55.672;37.628;2023-07-29T01:23:08;98501.75;;;16.70;nan
76205;BME280;64986;55.672;37.628;2023-07-29T01:25:34;98509.22;;;16.62;nan
76205;BME280;64986;55.672;37.628;2023-07-29T01:27:59;98500.97;;;16.54;nan
76205;BME280;64986;55.672;37.628;2023-07-29T01:30:39;98506.81;;;16.51;nan
76205;BME280;64986;55.672;37.628;2023-07-29T01:33:26;98502.03;;;16.37;nan
76205;BME280;64986;55.672;37.628;2023-07-29T01:35:57;98492.50;;;16.21;nan
76205;BME280;64986;55.672;37.628;2023-07-29T01:38:41;98482.66;;;16.22;nan
76205;BME280;64986;55.672;37.628;2023-07-29T01:41:08;98484.25;;;16.13;nan
76205;BME280;64986;55.672;37.628;2023-07-29T01:43:34;98486.38;;;16.16;nan
76205;BME280;64986;55.672;37.628;2023-07-29T01:46:05;98487.16;;;16.16;nan
76205;BME280;64986;55.672;37.628;2023-07-29T01:48:31;98477.88;;;16.14;nan
76205;BME280;64986;55.672;37.628;2023-07-29T01:50:57;98475.50;;;16.12;nan
76205;BME280;64986;55.672;37.628;2023-07-29T01:53:23;98474.16;;;16.20;nan
76205;BME280;64986;55.672;37.628;2023-07-29T01:55:49;98478.16;;;16.17;nan
76205;BME280;64986;55.672;37.628;2023-07-29T01:58:14;98481.31;;;16.29;nan
76205;BME280;64986;55.672;37.628;2023-07-29T02:00:40;98479.47;;;16.45;nan
76205;BME280;64986;55.672;37.628;2023-07-29T02:03:05;98486.38;;;16.51;nan
76205;BME280;64986;55.672;37.628;2023-07-29T02:05:31;98497.25;;;16.60;nan
76205;BME280;64986;55.672;37.628;2023-07-29T02:07:56;98491.66;;;16.67;nan
76205;BME280;64986;55.672;37.628;2023-07-29T02:10:22;98511.31;;;16.65;nan
76205;BME280;64986;55.672;37.628;2023-07-29T02:12:47;98511.06;;;16.57;nan
76205;BME280;64986;55.672;37.628;2023-07-29T02:15:13;98520.34;;;16.59;nan
76205;BME280;64986;55.672;37.628;2023-07-29T02:17:41;98526.47;;;16.60;nan
76205;BME280;64986;55.672;37.628;2023-07-29T02:20:07;98534.44;;;16.55;nan
76205;BME280;64986;55.672;37.628;2023-07-29T02:22:33;98549.31;;;16.61;nan
76205;BME280;64986;55.672;37.628;2023-07-29T02:24:59;98547.19;;;16.58;nan
76205;BME280;64986;55.672;37.628;2023-07-29T02:27:25;98534.47;;;16.50;nan
76205;BME280;64986;55.672;37.628;2023-07-29T02:29:52;98531.81;;;16.50;nan
76205;BME280;64986;55.672;37.628;2023-07-29T02:32:18;98538.94;;;16.54;nan
76205;BME280;64986;55.672;37.628;2023-07-29T02:34:44;98545.34;;;16.48;nan
76205;BME280;64986;55.672;37.628;2023-07-29T02:37:10;98539.50;;;16.26;nan
76205;BME280;64986;55.672;37.628;2023-07-29T02:39:36;98535.75;;;16.06;nan
76205;BME280;64986;55.672;37.628;2023-07-29T02:42:01;98520.88;;;15.95;nan
76205;BME280;64986;55.672;37.628;2023-07-29T02:44:27;98524.28;;;15.86;nan
76205;BME280;64986;55.672;37.628;2023-07-29T02:46:52;98515.28;;;15.81;nan
76205;BME280;64986;55.672;37.628;2023-07-29T02:49:19;98520.59;;;15.81;nan
76205;BME280;64986;55.672;37.628;2023-07-29T02:51:45;98513.13;;;15.78;nan
76205;BME280;64986;55.672;37.628;2023-07-29T02:54:10;98513.94;;;15.84;nan
76205;BME280;64986;55.672;37.628;2023-07-29T02:56:36;98515.31;;;15.97;nan
76205;BME280;64986;55.672;37.628;2023-07-29T02:59:01;98519.03;;;16.06;nan
76205;BME280;64986;55.672;37.628;2023-07-29T03:01:27;98507.09;;;16.14;nan
76205;BME280;64986;55.672;37.628;2023-07-29T03:03:53;98507.88;;;16.09;nan
76205;BME280;64986;55.672;37.628;2023-07-29T03:06:18;98506.28;;;16.08;nan
76205;BME280;64986;55.672;37.628;2023-07-29T03:08:44;98503.63;;;16.13;nan
76205;BME280;64986;55.672;37.628;2023-07-29T03:11:14;98490.34;;;16.23;nan
76205;BME280;64986;55.672;37.628;2023-07-29T03:13:40;98494.09;;;16.27;nan
76205;BME280;64986;55.672;37.628;2023-07-29T03:16:13;98483.72;;;16.31;nan
76205;BME280;64986;55.672;37.628;2023-07-29T03:18:42;98487.19;;;16.42;nan
76205;BME280;64986;55.672;37.628;2023-07-29T03:21:08;98474.16;;;16.50;nan
76205;BME280;64986;55.672;37.628;2023-07-29T03:23:34;98480.81;;;16.48;nan
76205;BME280;64986;55.672;37.628;2023-07-29T03:26:01;98488.22;;;16.51;nan
76205;BME280;64986;55.672;37.628;2023-07-29T03:28:31;98486.09;;;16.53;nan
76205;BME280;64986;55.672;37.628;2023-07-29T03:30:58;98473.06;;;16.56;nan
76205;BME280;64986;55.672;37.628;2023-07-29T03:33:25;98466.41;;;16.64;nan
76205;BME280;64986;55.672;37.628;2023-07-29T03:35:51;98468.28;;;16.58;nan
76205;BME280;64986;55.672;37.628;2023-07-29T03:38:16;98474.41;;;16.54;nan
76205;BME280;64986;55.672;37.628;2023-07-29T03:40:42;98474.66;;;16.57;nan
76205;BME280;64986;55.672;37.628;2023-07-29T03:43:08;98458.69;;;16.68;nan
76205;BME280;64986;55.672;37.628;2023-07-29T03:45:35;98452.56;;;16.77;nan
76205;BME280;64986;55.672;37.628;2023-07-29T03:48:00;98454.16;;;16.88;nan
76205;BME280;64986;55.672;37.628;2023-07-29T03:50:27;98454.44;;;16.61;nan
76205;BME280;64986;55.672;37.628;2023-07-29T03:52:52;98455.25;;;16.62;nan
76205;BME280;64986;55.672;37.628;2023-07-29T03:55:18;98439.84;;;16.54;nan
76205;BME280;64986;55.672;37.628;2023-07-29T03:57:44;98442.78;;;16.52;nan
76205;BME280;64986;55.672;37.628;2023-07-29T04:00:09;98436.16;;;16.50;nan
76205;BME280;64986;55.672;37.628;2023-07-29T04:02:36;98445.44;;;16.73;nan
76205;BME280;64986;55.672;37.628;2023-07-29T04:05:05;98449.41;;;16.80;nan
76205;BME280;64986;55.672;37.628;2023-07-29T04:07:34;98427.63;;;16.73;nan
76205;BME280;64986;55.672;37.628;2023-07-29T04:10:00;98440.38;;;16.76;nan
76205;BME280;64986;55.672;37.628;2023-07-29T04:12:26;98446.47;;;16.82;nan
76205;BME280;64986;55.672;37.628;2023-07-29T04:14:52;98430.25;;;16.83;nan
76205;BME280;64986;55.672;37.628;2023-07-29T04:17:17;98436.91;;;16.86;nan
76205;BME280;64986;55.672;37.628;2023-07-29T04:19:43;98428.13;;;16.80;nan
76205;BME280;64986;55.672;37.628;2023-07-29T04:22:08;98427.59;;;16.83;nan
76205;BME280;64986;55.672;37.628;2023-07-29T04:24:34;98429.66;;;16.97;nan
76205;BME280;64986;55.672;37.628;2023-07-29T04:26:59;98430.16;;;17.04;nan
76205;BME280;64986;55.672;37.628;2023-07-29T04:29:25;98432.81;;;17.09;nan
76205;BME280;64986;55.672;37.628;2023-07-29T04:31:50;98431.44;;;17.16;nan
76205;BME280;64986;55.672;37.628;2023-07-29T04:34:17;98446.84;;;17.25;nan
76205;BME280;64986;55.672;37.628;2023-07-29T04:36:43;98437.78;;;17.31;nan
76205;BME280;64986;55.672;37.628;2023-07-29T04:39:08;98443.81;;;17.41;nan
76205;BME280;64986;55.672;37.628;2023-07-29T04:41:34;98434.28;;;17.35;nan
76205;BME280;64986;55.672;37.628;2023-07-29T04:44:00;98436.41;;;17.38;nan
76205;BME280;64986;55.672;37.628;2023-07-29T04:46:25;98432.75;;;17.19;nan
76205;BME280;64986;55.672;37.628;2023-07-29T04:48:51;98438.06;;;17.24;nan
76205;BME280;64986;55.672;37.628;2023-07-29T04:51:16;98438.00;;;17.34;nan
76205;BME280;64986;55.672;37.628;2023-07-29T04:53:42;98423.31;;;17.47;nan
76205;BME280;64986;55.672;37.628;2023-07-29T04:56:07;98426.84;;;17.32;nan
76205;BME280;64986;55.672;37.628;2023-07-29T04:58:33;98435.53;;;17.48;nan
76205;BME280;64986;55.672;37.628;2023-07-29T05:01:01;98425.69;;;17.48;nan
76205;BME280;64986;55.672;37.628;2023-07-29T05:03:27;98412.88;;;17.56;nan
76205;BME280;64986;55.672;37.628;2023-07-29T05:05:53;98413.81;;;17.75;nan
76205;BME280;64986;55.672;37.628;2023-07-29T05:08:21;98423.22;;;17.57;nan
76205;BME280;64986;55.672;37.628;2023-07-29T05:10:53;98404.94;;;17.45;nan
76205;BME280;64986;55.672;37.628;2023-07-29T05:13:19;98404.38;;;17.54;nan
76205;BME280;64986;55.672;37.628;2023-07-29T05:15:47;98401.38;;;17.60;nan
76205;BME280;64986;55.672;37.628;2023-07-29T05:18:13;98405.22;;;17.44;nan
76205;BME280;64986;55.672;37.628;2023-07-29T05:20:39;98402.59;;;17.39;nan
76205;BME280;64986;55.672;37.628;2023-07-29T05:23:05;98384.31;;;17.22;nan
76205;BME280;64986;55.672;37.628;2023-07-29T05:25:30;98406.75;;;17.11;nan
76205;BME280;64986;55.672;37.628;2023-07-29T05:27:56;98400.41;;;17.02;nan
76205;BME280;64986;55.672;37.628;2023-07-29T05:30:22;98408.69;;;16.85;nan
76205;BME280;64986;55.672;37.628;2023-07-29T05:32:48;98397.56;;;16.83;nan
76205;BME280;64986;55.672;37.628;2023-07-29T05:35:13;98390.09;;;16.90;nan
76205;BME280;64986;55.672;37.628;2023-07-29T05:37:40;98395.53;;;17.19;nan
76205;BME280;64986;55.672;37.628;2023-07-29T05:40:06;98392.78;;;17.34;nan
76205;BME280;64986;55.672;37.628;2023-07-29T05:42:32;98406.16;;;17.63;nan
76205;BME280;64986;55.672;37.628;2023-07-29T05:44:58;98406.19;;;17.58;nan
76205;BME280;64986;55.672;37.628;2023-07-29T05:47:23;98421.09;;;17.59;nan
76205;BME280;64986;55.672;37.628;2023-07-29T05:49:49;98418.22;;;17.51;nan
76205;BME280;64986;55.672;37.628;2023-07-29T05:52:15;98418.59;;;17.34;nan
76205;BME280;64986;55.672;37.628;2023-07-29T05:54:40;98424.38;;;17.46;nan
76205;BME280;64986;55.672;37.628;2023-07-29T05:57:09;98434.69;;;17.53;nan
76205;BME280;64986;55.672;37.628;2023-07-29T05:59:35;98428.25;;;17.64;nan
76205;BME280;64986;55.672;37.628;2023-07-29T06:02:00;98426.06;;;17.76;nan
76205;BME280;64986;55.672;37.628;2023-07-29T06:04:26;98429.28;;;17.68;nan
76205;BME280;64986;55.672;37.628;2023-07-29T06:06:51;98438.84;;;17.74;nan
76205;BME280;64986;55.672;37.628;2023-07-29T06:09:17;98436.66;;;17.81;nan
76205;BME280;64986;55.672;37.628;2023-07-29T06:11:42;98430.53;;;17.86;nan
76205;BME280;64986;55.672;37.628;2023-07-29T06:14:08;98441.38;;;17.94;nan
76205;BME280;64986;55.672;37.628;2023-07-29T06:16:33;98442.19;;;17.90;nan
76205;BME280;64986;55.672;37.628;2023-07-29T06:18:59;98454.38;;;18.01;nan
76205;BME280;64986;55.672;37.628;2023-07-29T06:21:24;98451.44;;;18.02;nan
76205;BME280;64986;55.672;37.628;2023-07-29T06:23:50;98456.78;;;17.97;nan
76205;BME280;64986;55.672;37.628;2023-07-29T06:26:15;98465.53;;;18.03;nan
76205;BME280;64986;55.672;37.628;2023-07-29T06:28:43;98467.31;;;18.13;nan
76205;BME280;64986;55.672;37.628;2023-07-29T06:31:09;98466.13;;;18.29;nan
76205;BME280;64986;55.672;37.628;2023-07-29T06:33:34;98473.69;;;18.17;nan
76205;BME280;64986;55.672;37.628;2023-07-29T06:36:00;98472.91;;;18.16;nan
76205;BME280;64986;55.672;37.628;2023-07-29T06:38:27;98475.75;;;18.25;nan
76205;BME280;64986;55.672;37.628;2023-07-29T06:40:53;98475.25;;;18.23;nan
76205;BME280;64986;55.672;37.628;2023-07-29T06:43:18;98466.81;;;18.11;nan
76205;BME280;64986;55.672;37.628;2023-07-29T06:45:44;98466.91;;;18.00;nan
76205;BME280;64986;55.672;37.628;2023-07-29T06:48:09;98469.09;;;17.88;nan
76205;BME280;64986;55.672;37.628;2023-07-29T06:50:35;98479.84;;;17.73;nan
76205;BME280;64986;55.672;37.628;2023-07-29T06:53:00;98465.13;;;17.36;nan
76205;BME280;64986;55.672;37.628;2023-07-29T06:55:26;98462.00;;;17.24;nan
76205;BME280;64986;55.672;37.628;2023-07-29T06:57:51;98479.63;;;17.00;nan
76205;BME280;64986;55.672;37.628;2023-07-29T07:00:17;98468.53;;;16.87;nan
76205;BME280;64986;55.672;37.628;2023-07-29T07:02:43;98488.72;;;16.83;nan
76205;BME280;64986;55.672;37.628;2023-07-29T07:05:08;98489.78;;;16.77;nan
76205;BME280;64986;55.672;37.628;2023-07-29T07:07:34;98480.78;;;16.78;nan
76205;BME280;64986;55.672;37.628;2023-07-29T07:10:00;98490.53;;;16.98;nan
76205;BME280;64986;55.672;37.628;2023-07-29T07:12:25;98489.22;;;17.01;nan
76205;BME280;64986;55.672;37.628;2023-07-29T07:14:51;98474.31;;;17.05;nan
76205;BME280;64986;55.672;37.628;2023-07-29T07:17:16;98482.28;;;17.10;nan
76205;BME280;64986;55.672;37.628;2023-07-29T07:19:42;98484.69;;;17.01;nan
76205;BME280;64986;55.672;37.628;2023-07-29T07:22:07;98481.25;;;16.90;nan
76205;BME280;64986;55.672;37.628;2023-07-29T07:24:33;98479.16;;;16.87;nan
76205;BME280;64986;55.672;37.628;2023-07-29T07:26:58;98483.41;;;16.83;nan
76205;BME280;64986;55.672;37.628;2023-07-29T07:29:24;98475.88;;;17.06;nan
76205;BME280;64986;55.672;37.628;2023-07-29T07:31:53;98473.09;;;17.36;nan
76205;BME280;64986;55.672;37.628;2023-07-29T07:34:20;98478.19;;;17.33;nan
76205;BME280;64986;55.672;37.628;2023-07-29T07:36:46;98478.41;;;17.36;nan
76205;BME280;64986;55.672;37.628;2023-07-29T07:39:12;98482.66;;;17.42;nan
76205;BME280;64986;55.672;37.628;2023-07-29T07:41:37;98490.19;;;17.20;nan
76205;BME280;64986;55.672;37.628;2023-07-29T07:44:03;98478.56;;;17.06;nan
76205;BME280;64986;55.672;37.628;2023-07-29T07:46:29;98484.66;;;17.11;nan
76205;BME280;64986;55.672;37.628;2023-07-29T07:48:54;98485.41;;;17.22;nan
76205;BME280;64986;55.672;37.628;2023-07-29T07:51:20;98479.56;;;17.25;nan
76205;BME280;64986;55.672;37.628;2023-07-29T07:53:46;98480.22;;;17.51;nan
76205;BME280;64986;55.672;37.628;2023-07-29T07:56:11;98486.03;;;17.53;nan
76205;BME280;64986;55.672;37.628;2023-07-29T07:58:38;98487.53;;;17.25;nan
76205;BME280;64986;55.672;37.628;2023-07-29T08:01:08;98493.88;;;17.34;nan
76205;BME280;64986;55.672;37.628;2023-07-29T08:03:35;98490.19;;;17.25;nan
76205;BME280;64986;55.672;37.628;2023-07-29T08:06:01;98484.34;;;17.23;nan
76205;BME280;64986;55.672;37.628;2023-07-29T08:08:27;98492.13;;;17.04;nan
76205;BME280;64986;55.672;37.628;2023-07-29T08:10:54;98495.84;;;16.98;nan
76205;BME280;64986;55.672;37.628;2023-07-29T08:13:20;98496.69;;;16.88;nan
76205;BME280;64986;55.672;37.628;2023-07-29T08:15:50;98497.75;;;16.82;nan
76205;BME280;64986;55.672;37.628;2023-07-29T08:18:16;98493.75;;;16.90;nan
76205;BME280;64986;55.672;37.628;2023-07-29T08:20:55;98496.13;;;16.91;nan
76205;BME280;64986;55.672;37.628;2023-07-29T08:23:21;98491.13;;;16.80;nan
76205;BME280;64986;55.672;37.628;2023-07-29T08:25:58;98498.56;;;16.88;nan
76205;BME280;64986;55.672;37.628;2023-07-29T08:28:34;98510.53;;;16.80;nan
76205;BME280;64986;55.672;37.628;2023-07-29T08:31:00;98510.53;;;16.85;nan
76205;BME280;64986;55.672;37.628;2023-07-29T08:33:26;98511.56;;;16.84;nan
76205;BME280;64986;55.672;37.628;2023-07-29T08:35:52;98503.06;;;16.87;nan
76205;BME280;64986;55.672;37.628;2023-07-29T08:38:18;98502.56;;;16.85;nan
76205;BME280;64986;55.672;37.628;2023-07-29T08:40:58;98512.63;;;16.88;nan
76205;BME280;64986;55.672;37.628;2023-07-29T08:43:31;98512.09;;;17.02;nan
76205;BME280;64986;55.672;37.628;2023-07-29T08:45:58;98515.84;;;16.85;nan
76205;BME280;64986;55.672;37.628;2023-07-29T08:48:36;98519.03;;;16.87;nan
76205;BME280;64986;55.672;37.628;2023-07-29T08:51:05;98515.84;;;16.80;nan
76205;BME280;64986;55.672;37.628;2023-07-29T08:53:32;98524.06;;;16.69;nan
76205;BME280;64986;55.672;37.628;2023-07-29T08:55:59;98508.94;;;16.64;nan
76205;BME280;64986;55.672;37.628;2023-07-29T08:58:25;98507.09;;;16.75;nan
76205;BME280;64986;55.672;37.628;2023-07-29T09:00:50;98506.78;;;16.91;nan
76205;BME280;64986;55.672;37.628;2023-07-29T09:03:16;98502.47;;;17.11;nan
76205;BME280;64986;55.672;37.628;2023-07-29T09:05:42;98492.56;;;17.32;nan
76205;BME280;64986;55.672;37.628;2023-07-29T09:08:08;98496.63;;;17.68;nan
76205;BME280;64986;55.672;37.628;2023-07-29T09:10:37;98503.00;;;17.78;nan
76205;BME280;64986;55.672;37.628;2023-07-29T09:13:03;98511.72;;;17.83;nan
76205;BME280;64986;55.672;37.628;2023-07-29T09:15:30;98511.69;;;17.93;nan
76205;BME280;64986;55.672;37.628;2023-07-29T09:17:57;98505.31;;;17.89;nan
76205;BME280;64986;55.672;37.628;2023-07-29T09:20:27;98504.56;;;18.18;nan
76205;BME280;64986;55.672;37.628;2023-07-29T09:22:58;98507.56;;;18.45;nan
76205;BME280;64986;55.672;37.628;2023-07-29T09:25:28;98511.19;;;18.54;nan
76205;BME280;64986;55.672;37.628;2023-07-29T09:28:00;98521.56;;;18.56;nan
76205;BME280;64986;55.672;37.628;2023-07-29T09:30:27;98520.03;;;18.50;nan
76205;BME280;64986;55.672;37.628;2023-07-29T09:32:57;98516.63;;;18.44;nan
76205;BME280;64986;55.672;37.628;2023-07-29T09:35:23;98517.78;;;18.33;nan
76205;BME280;64986;55.672;37.628;2023-07-29T09:37:51;98503.88;;;18.36;nan
76205;BME280;64986;55.672;37.628;2023-07-29T09:40:17;98512.94;;;18.35;nan
76205;BME280;64986;55.672;37.628;2023-07-29T09:42:55;98517.81;;;18.28;nan
76205;BME280;64986;55.672;37.628;2023-07-29T09:45:25;98517.78;;;18.33;nan
76205;BME280;64986;55.672;37.628;2023-07-29T09:47:53;98512.59;;;18.47;nan
76205;BME280;64986;55.672;37.628;2023-07-29T09:50:23;98521.97;;;18.73;nan
76205;BME280;64986;55.672;37.628;2023-07-29T09:52:50;98527.81;;;19.04;nan
76205;BME280;64986;55.672;37.628;2023-07-29T09:55:19;98524.34;;;19.28;nan
76205;BME280;64986;55.672;37.628;2023-07-29T09:57:46;98522.28;;;19.44;nan
76205;BME280;64986;55.672;37.628;2023-07-29T10:00:12;98526.09;;;19.61;nan
76205;BME280;64986;55.672;37.628;2023-07-29T10:02:42;98525.91;;;19.53;nan
76205;BME280;64986;55.672;37.628;2023-07-29T10:05:09;98528.75;;;19.61;nan
76205;BME280;64986;55.672;37.628;2023-07-29T10:07:39;98531.44;;;19.56;nan
76205;BME280;64986;55.672;37.628;2023-07-29T10:10:05;98527.38;;;19.64;nan
76205;BME280;64986;55.672;37.628;2023-07-29T10:12:33;98523.00;;;19.92;nan
76205;BME280;64986;55.672;37.628;2023-07-29T10:15:01;98522.81;;;20.02;nan
76205;BME280;64986;55.672;37.628;2023-07-29T10:17:27;98525.78;;;20.01;nan
76205;BME280;64986;55.672;37.628;2023-07-29T10:19:55;98530.50;;;19.90;nan
76205;BME280;64986;55.672;37.628;2023-07-29T10:22:25;98518.94;;;19.76;nan
76205;BME280;64986;55.672;37.628;2023-07-29T10:24:54;98537.81;;;20.03;nan
76205;BME280;64986;55.672;37.628;2023-07-29T10:27:24;98534.81;;;19.67;nan
76205;BME280;64986;55.672;37.628;2023-07-29T10:29:51;98536.63;;;19.72;nan
76205;BME280;64986;55.672;37.628;2023-07-29T10:32:25;98528.34;;;19.73;nan
76205;BME280;64986;55.672;37.628;2023-07-29T10:34:50;98520.53;;;19.77;nan
76205;BME280;64986;55.672;37.628;2023-07-29T10:37:16;98526.47;;;20.11;nan
76205;BME280;64986;55.672;37.628;2023-07-29T10:39:52;98532.78;;;20.34;nan
76205;BME280;64986;55.672;37.628;2023-07-29T10:42:18;98522.22;;;20.24;nan
76205;BME280;64986;55.672;37.628;2023-07-29T10:44:48;98532.00;;;20.34;nan
76205;BME280;64986;55.672;37.628;2023-07-29T10:47:18;98528.66;;;20.23;nan
76205;BME280;64986;55.672;37.628;2023-07-29T10:49:45;98516.25;;;20.13;nan
76205;BME280;64986;55.672;37.628;2023-07-29T10:55:00;98506.59;;;19.80;nan
76205;BME280;64986;55.672;37.628;2023-07-29T10:57:33;98515.13;;;20.01;nan
76205;BME280;64986;55.672;37.628;2023-07-29T10:59:59;98512.00;;;19.93;nan
76205;BME280;64986;55.672;37.628;2023-07-29T11:02:32;98528.91;;;20.08;nan
76205;BME280;64986;55.672;37.628;2023-07-29T11:04:59;98517.66;;;19.92;nan
76205;BME280;64986;55.672;37.628;2023-07-29T11:07:26;98522.28;;;20.05;nan
76205;BME280;64986;55.672;37.628;2023-07-29T11:09:58;98519.13;;;20.17;nan
76205;BME280;64986;55.672;37.628;2023-07-29T11:12:38;98524.09;;;20.42;nan
76205;BME280;64986;55.672;37.628;2023-07-29T11:15:27;98525.41;;;20.45;nan
76205;BME280;64986;55.672;37.628;2023-07-29T11:17:56;98521.06;;;20.49;nan
76205;BME280;64986;55.672;37.628;2023-07-29T11:20:33;98527.25;;;20.63;nan
76205;BME280;64986;55.672;37.628;2023-07-29T11:23:03;98526.78;;;20.75;nan
76205;BME280;64986;55.672;37.628;2023-07-29T11:25:29;98523.91;;;20.20;nan
76205;BME280;64986;55.672;37.628;2023-07-29T11:27:57;98539.41;;;20.37;nan
76205;BME280;64986;55.672;37.628;2023-07-29T11:30:23;98525.72;;;19.87;nan
76205;BME280;64986;55.672;37.628;2023-07-29T11:32:48;98525.72;;;19.87;nan
76205;BME280;64986;55.672;37.628;2023-07-29T11:35:18;98532.94;;;19.67;nan
76205;BME280;64986;55.672;37.628;2023-07-29T11:37:45;98550.66;;;19.82;nan
76205;BME280;64986;55.672;37.628;2023-07-29T11:40:15;98556.41;;;20.08;nan
76205;BME280;64986;55.672;37.628;2023-07-29T11:42:42;98553.38;;;20.15;nan
76205;BME280;64986;55.672;37.628;2023-07-29T11:45:08;98551.44;;;20.20;nan
76205;BME280;64986;55.672;37.628;2023-07-29T11:47:35;98554.41;;;20.19;nan
76205;BME280;64986;55.672;37.628;2023-07-29T11:50:03;98560.38;;;20.30;nan
76205;BME280;64986;55.672;37.628;2023-07-29T11:52:29;98561.31;;;20.01;nan
76205;BME280;64986;55.672;37.628;2023-07-29T11:54:57;98565.16;;;19.95;nan
76205;BME280;64986;55.672;37.628;2023-07-29T11:57:23;98567.25;;;19.98;nan
76205;BME280;64986;55.672;37.628;2023-07-29T11:59:49;98554.69;;;19.99;nan
76205;BME280;64986;55.672;37.628;2023-07-29T12:02:19;98572.75;;;19.88;nan
76205;BME280;64986;55.672;37.628;2023-07-29T12:04:46;98575.41;;;19.88;nan
76205;BME280;64986;55.672;37.628;2023-07-29T12:07:13;98567.41;;;19.64;nan
76205;BME280;64986;55.672;37.628;2023-07-29T12:09:40;98569.31;;;19.63;nan
76205;BME280;64986;55.672;37.628;2023-07-29T12:12:07;98566.53;;;19.74;nan
76205;BME280;64986;55.672;37.628;2023-07-29T12:14:33;98566.16;;;19.80;nan
76205;BME280;64986;55.672;37.628;2023-07-29T12:17:00;98570.38;;;19.62;nan
76205;BME280;64986;55.672;37.628;2023-07-29T12:19:35;98562.38;;;19.62;nan
76205;BME280;64986;55.672;37.628;2023-07-29T12:22:02;98564.28;;;19.81;nan
76205;BME280;64986;55.672;37.628;2023-07-29T12:24:35;98560.00;;;19.80;nan
76205;BME280;64986;55.672;37.628;2023-07-29T12:27:00;98558.22;;;19.94;nan
76205;BME280;64986;55.672;37.628;2023-07-29T12:29:26;98551.84;;;20.09;nan
76205;BME280;64986;55.672;37.628;2023-07-29T12:32:00;98549.75;;;20.24;nan
76205;BME280;64986;55.672;37.628;2023-07-29T12:34:28;98553.00;;;20.21;nan
76205;BME280;64986;55.672;37.628;2023-07-29T12:36:55;98554.25;;;20.10;nan
76205;BME280;64986;55.672;37.628;2023-07-29T12:39:29;98547.75;;;19.98;nan
76205;BME280;64986;55.672;37.628;2023-07-29T12:41:58;98551.38;;;19.88;nan
76205;BME280;64986;55.672;37.628;2023-07-29T12:44:32;98550.34;;;19.84;nan
76205;BME280;64986;55.672;37.628;2023-07-29T12:46:58;98540.59;;;19.93;nan
76205;BME280;64986;55.672;37.628;2023-07-29T12:49:24;98535.56;;;20.10;nan
76205;BME280;64986;55.672;37.628;2023-07-29T12:51:50;98550.38;;;20.03;nan
76205;BME280;64986;55.672;37.628;2023-07-29T12:54:15;98549.78;;;20.06;nan
76205;BME280;64986;55.672;37.628;2023-07-29T12:56:41;98538.94;;;19.78;nan
76205;BME280;64986;55.672;37.628;2023-07-29T12:59:06;98548.28;;;19.81;nan
76205;BME280;64986;55.672;37.628;2023-07-29T13:01:32;98551.00;;;19.76;nan
76205;BME280;64986;55.672;37.628;2023-07-29T13:03:57;98545.06;;;19.79;nan
76205;BME280;64986;55.672;37.628;2023-07-29T13:06:23;98559.88;;;19.47;nan
76205;BME280;64986;55.672;37.628;2023-07-29T13:08:49;98561.38;;;19.58;nan
76205;BME280;64986;55.672;37.628;2023-07-29T13:11:15;98550.06;;;19.66;nan
76205;BME280;64986;55.672;37.628;2023-07-29T13:13:41;98545.88;;;19.98;nan
76205;BME280;64986;55.672;37.628;2023-07-29T13:16:07;98545.59;;;20.18;nan
76205;BME280;64986;55.672;37.628;2023-07-29T13:18:33;98532.28;;;20.13;nan